Time;durP1;ratioP1;P1;durP2;ratioP2;P2;SDS_P1;SDS_P2;PMS_P1;PMS_P2;Temp;Humidity;BMP_temperature;BMP_pressure;BME280_temperature;BME280_humidity;BME280_pressure;Samples;Min_cycle;Max_cycle;Signal;HPM_P1;HPM_P2
2022/07/27 00:00:28;;;;;;;2.85;1.10;;;;;;;15.82;100.00;95757.75;1021467;29;20031;-70
2022/07/27 00:00:58;;;;;;;10.52;1.60;;;;;;;15.79;100.00;95746.69;1022294;28;20069;-71
2022/07/27 00:01:29;;;;;;;10.85;2.03;;;;;;;15.85;100.00;95754.50;1017904;29;20110;-70
2022/07/27 00:01:59;;;;;;;5.65;1.33;;;;;;;15.85;100.00;95765.09;1018624;29;20073;-71
2022/07/27 00:02:30;;;;;;;4.13;1.15;;;;;;;15.78;100.00;95744.31;1022526;28;20106;-69
2022/07/27 00:03:00;;;;;;;6.32;1.90;;;;;;;15.86;100.00;95756.06;1026296;28;20109;-71
2022/07/27 00:03:31;;;;;;;2.38;0.70;;;;;;;15.84;100.00;95752.97;1030428;28;20030;-71
2022/07/27 00:04:01;;;;;;;4.82;1.20;;;;;;;15.84;100.00;95752.97;1030552;28;20026;-70
2022/07/27 00:04:32;;;;;;;2.83;0.98;;;;;;;15.78;100.00;95745.09;1030344;28;20315;-70
2022/07/27 00:05:02;;;;;;;4.18;1.33;;;;;;;15.83;100.00;95757.47;1029837;28;20454;-71
2022/07/27 00:05:33;;;;;;;4.18;1.20;;;;;;;15.82;100.00;95750.59;1022369;29;20036;-70
2022/07/27 00:06:03;;;;;;;2.00;0.90;;;;;;;15.82;100.00;95749.81;1023660;28;20693;-71
2022/07/27 00:06:34;;;;;;;5.88;1.20;;;;;;;15.83;100.00;95751.38;1030494;28;20109;-70
2022/07/27 00:07:04;;;;;;;11.38;1.30;;;;;;;15.71;100.00;95733.38;1030249;28;20045;-71
2022/07/27 00:07:35;;;;;;;4.07;1.10;;;;;;;15.82;100.00;95749.81;1030440;28;20101;-71
2022/07/27 00:08:05;;;;;;;6.65;0.93;;;;;;;15.81;100.00;95749.03;1030341;28;20034;-70
2022/07/27 00:08:36;;;;;;;3.10;1.00;;;;;;;15.79;100.00;95746.69;1026411;28;20162;-71
2022/07/27 00:09:06;;;;;;;2.08;0.85;;;;;;;15.78;100.00;95745.09;1026269;28;20539;-72
2022/07/27 00:09:37;;;;;;;3.10;1.27;;;;;;;15.77;100.00;95746.19;1030234;28;20054;-70
2022/07/27 00:10:08;;;;;;;5.35;1.00;;;;;;;15.76;100.00;95749.13;1026558;28;20022;-71
2022/07/27 00:10:38;;;;;;;4.28;0.90;;;;;;;15.76;100.00;95741.19;1030449;28;20046;-71
2022/07/27 00:11:09;;;;;;;5.75;1.20;;;;;;;15.75;100.00;95743.06;1025652;28;20579;-71
2022/07/27 00:11:40;;;;;;;3.25;0.90;;;;;;;15.75;100.00;95750.22;1024828;28;20496;-70
2022/07/27 00:12:10;;;;;;;5.13;1.20;;;;;;;15.73;100.00;95742.56;1015991;29;20040;-70
2022/07/27 00:12:41;;;;;;;2.75;1.58;;;;;;;15.71;100.00;95747.38;1018616;29;20381;-70
2022/07/27 00:13:11;;;;;;;7.30;1.50;;;;;;;15.70;100.00;95743.16;1015727;29;20048;-70
2022/07/27 00:13:43;;;;;;;3.33;1.20;;;;;;;15.66;100.00;95742.19;1022650;28;20050;-71
2022/07/27 00:14:14;;;;;;;3.45;1.25;;;;;;;15.67;100.00;95746.41;1026349;28;20669;-72
2022/07/27 00:14:44;;;;;;;2.53;1.10;;;;;;;15.68;100.00;95742.66;1026498;28;20074;-71
2022/07/27 00:15:15;;;;;;;4.53;1.60;;;;;;;15.67;100.00;95741.09;1026137;28;20031;-70
2022/07/27 00:15:45;;;;;;;4.15;1.30;;;;;;;15.69;100.00;95740.81;1026763;28;20030;-72
2022/07/27 00:16:16;;;;;;;8.52;1.55;;;;;;;15.70;100.00;95748.47;1030240;28;20031;-70
2022/07/27 00:16:46;;;;;;;7.32;1.17;;;;;;;15.69;100.00;95741.59;1030299;28;20031;-71
2022/07/27 00:17:22;;;;;;;6.35;1.10;;;;;;;15.70;100.00;95742.38;1022351;29;20409;-71
2022/07/27 00:17:54;;;;;;;2.13;1.08;;;;;;;15.72;100.00;95740.22;1023172;28;20113;-71
2022/07/27 00:18:24;;;;;;;7.85;1.20;;;;;;;15.72;100.00;95743.63;1023201;28;20036;-70
2022/07/27 00:18:55;;;;;;;7.30;1.38;;;;;;;15.74;100.00;95738.84;1015452;29;20055;-73
2022/07/27 00:19:25;;;;;;;9.68;1.50;;;;;;;15.74;100.00;95738.84;1018397;29;20043;-71
2022/07/27 00:19:56;;;;;;;4.68;1.23;;;;;;;15.70;100.00;95735.22;1018734;29;20443;-71
2022/07/27 00:20:27;;;;;;;8.18;1.50;;;;;;;15.74;100.00;95738.06;1015381;28;20112;-71
2022/07/27 00:20:57;;;;;;;13.15;1.65;;;;;;;15.78;100.00;95734.53;1018472;29;20027;-71
2022/07/27 00:21:28;;;;;;;4.95;1.30;;;;;;;15.81;100.00;95737.66;1009732;29;20108;-70
2022/07/27 00:21:58;;;;;;;8.10;1.55;;;;;;;15.82;100.00;95733.94;1010859;29;20025;-70
2022/07/27 00:22:29;;;;;;;3.83;1.40;;;;;;;15.82;100.00;95731.28;1014786;29;20103;-71
2022/07/27 00:22:59;;;;;;;9.60;1.10;;;;;;;15.76;100.00;95720.81;1018702;28;20466;-71
2022/07/27 00:23:30;;;;;;;2.85;1.33;;;;;;;15.70;100.00;95705.34;1022763;28;20019;-71
2022/07/27 00:24:00;;;;;;;1.95;1.10;;;;;;;15.86;100.00;95734.91;1026542;28;20118;-71
2022/07/27 00:24:31;;;;;;;1.20;0.95;;;;;;;15.87;100.00;95723.25;1026488;28;20023;-70
2022/07/27 00:25:01;;;;;;;3.05;0.90;;;;;;;15.90;100.00;95725.31;1030581;28;20026;-71
2022/07/27 00:25:32;;;;;;;8.25;1.52;;;;;;;15.86;100.00;95713.75;1034285;28;20396;-71
2022/07/27 00:26:02;;;;;;;14.95;1.88;;;;;;;15.95;100.00;95725.19;1026400;28;20023;-70
2022/07/27 00:26:33;;;;;;;3.92;1.30;;;;;;;15.96;100.00;95716.97;1026446;28;20042;-70
2022/07/27 00:27:03;;;;;;;1.95;1.08;;;;;;;15.82;100.00;95694.25;1026353;28;20033;-71
2022/07/27 00:27:34;;;;;;;2.00;1.00;;;;;;;15.97;100.00;95715.13;1026264;28;20026;-71
2022/07/27 00:28:04;;;;;;;3.90;1.13;;;;;;;15.95;100.00;95712.75;1030235;28;20078;-70
2022/07/27 00:28:35;;;;;;;4.93;1.08;;;;;;;16.02;100.00;95717.63;1026191;28;20025;-70
2022/07/27 00:29:05;;;;;;;2.88;1.00;;;;;;;15.96;100.00;95709.03;1022446;28;20437;-71
2022/07/27 00:29:36;;;;;;;1.88;0.95;;;;;;;15.94;100.00;95713.06;1019121;29;20016;-70
2022/07/27 00:30:06;;;;;;;6.28;1.42;;;;;;;16.00;100.00;95720.59;1019191;29;20500;-69
2022/07/27 00:30:37;;;;;;;2.95;0.82;;;;;;;16.00;100.00;95714.53;1019242;29;20030;-70
2022/07/27 00:31:07;;;;;;;4.82;1.20;;;;;;;15.99;100.00;95718.22;1022805;28;20031;-70
2022/07/27 00:31:38;;;;;;;2.75;1.20;;;;;;;15.98;100.00;95720.09;1021295;28;20095;-70
2022/07/27 00:32:08;;;;;;;1.67;1.05;;;;;;;15.91;100.00;95705.72;1026930;28;20748;-71
2022/07/27 00:32:39;;;;;;;4.97;1.20;;;;;;;15.94;100.00;95715.69;1035104;28;20053;-70
2022/07/27 00:33:09;;;;;;;11.20;2.22;;;;;;;15.90;100.00;95710.22;1031171;28;20058;-71
2022/07/27 00:33:40;;;;;;;4.75;1.33;;;;;;;15.95;100.00;95717.25;1018972;29;20028;-71
2022/07/27 00:34:10;;;;;;;9.85;1.30;;;;;;;15.93;100.00;95714.94;1012718;29;20021;-71
2022/07/27 00:34:41;;;;;;;6.90;1.27;;;;;;;15.94;100.00;95721.00;1019194;29;20023;-69
2022/07/27 00:35:12;;;;;;;4.85;1.10;;;;;;;15.90;100.00;95720.81;1019324;28;20034;-70
2022/07/27 00:35:42;;;;;;;6.07;1.40;;;;;;;15.90;100.00;95720.81;1024279;28;20030;-71
2022/07/27 00:36:13;;;;;;;3.30;1.60;;;;;;;15.88;100.00;95714.25;1033643;28;20049;-70
2022/07/27 00:36:43;;;;;;;9.80;1.25;;;;;;;15.85;100.00;95714.81;1031209;28;20022;-70
2022/07/27 00:37:14;;;;;;;4.30;1.50;;;;;;;15.89;100.00;95721.09;1017484;29;20024;-72
2022/07/27 00:37:44;;;;;;;3.95;1.55;;;;;;;15.87;100.00;95715.31;1019134;29;20662;-71
2022/07/27 00:38:15;;;;;;;2.08;1.20;;;;;;;15.87;100.00;95717.97;1021967;29;20034;-70
2022/07/27 00:38:45;;;;;;;3.38;1.40;;;;;;;15.85;100.00;95720.91;1023024;28;20190;-71
2022/07/27 00:39:16;;;;;;;11.68;1.17;;;;;;;15.83;100.00;95711.69;1023236;28;20569;-71
2022/07/27 00:39:46;;;;;;;7.63;1.50;;;;;;;15.82;100.00;95713.56;1027098;28;20058;-71
2022/07/27 00:40:17;;;;;;;4.47;1.13;;;;;;;15.80;100.00;95718.38;1023095;29;20102;-70
2022/07/27 00:40:47;;;;;;;8.77;1.15;;;;;;;15.82;100.00;95718.06;1023232;28;20024;-70
2022/07/27 00:41:18;;;;;;;6.22;1.33;;;;;;;15.79;100.00;95714.13;1030669;28;20022;-71
2022/07/27 00:41:48;;;;;;;2.03;1.27;;;;;;;15.79;100.00;95720.25;1022726;29;20066;-71
2022/07/27 00:42:25;;;;;;;3.83;1.20;;;;;;;15.74;100.00;95706.31;1027040;28;20493;-71
2022/07/27 00:42:55;;;;;;;6.50;1.67;;;;;;;15.83;100.00;95724.91;1023520;29;20156;-70
2022/07/27 00:43:26;;;;;;;9.73;1.75;;;;;;;15.80;100.00;95721.03;1024626;28;20063;-70
2022/07/27 00:43:58;;;;;;;4.82;1.58;;;;;;;15.79;100.00;95720.25;1026458;28;20039;-71
2022/07/27 00:44:30;;;;;;;5.55;1.40;;;;;;;15.79;100.00;95714.94;1023972;28;20027;-71
2022/07/27 00:45:01;;;;;;;12.65;2.38;;;;;;;15.78;100.00;95710.72;1018049;29;20024;-70
2022/07/27 00:45:31;;;;;;;3.63;1.23;;;;;;;15.75;100.00;95708.66;1023116;29;20031;-71
2022/07/27 00:46:02;;;;;;;4.15;1.23;;;;;;;15.78;100.00;95726.59;1023172;29;20020;-71
2022/07/27 00:46:32;;;;;;;3.47;1.42;;;;;;;15.78;100.00;95717.88;1023315;28;20042;-71
2022/07/27 00:47:03;;;;;;;4.65;1.30;;;;;;;15.78;100.00;95713.34;1031326;28;20535;-71
2022/07/27 00:47:33;;;;;;;3.97;0.93;;;;;;;15.77;100.00;95716.31;1028316;28;20034;-69
2022/07/27 00:48:04;;;;;;;3.25;1.38;;;;;;;15.78;100.00;95712.56;1031066;28;20022;-72
2022/07/27 00:48:35;;;;;;;2.10;1.20;;;;;;;15.79;100.00;95714.94;1027176;28;20090;-69
2022/07/27 00:49:05;;;;;;;8.77;1.85;;;;;;;15.79;100.00;95714.94;1032164;28;20030;-69
2022/07/27 00:49:36;;;;;;;4.57;1.45;;;;;;;15.81;100.00;95708.56;1031176;28;20123;-72
2022/07/27 00:50:07;;;;;;;3.97;1.25;;;;;;;15.79;100.00;95704.38;1035259;28;20034;-70
2022/07/27 00:50:39;;;;;;;3.65;1.55;;;;;;;15.79;100.00;95709.66;1027053;28;20400;-69
2022/07/27 00:51:10;;;;;;;2.92;1.30;;;;;;;15.84;100.00;95715.91;1021063;29;20640;-71
2022/07/27 00:51:40;;;;;;;3.08;1.33;;;;;;;15.78;100.00;95708.06;1015178;29;20095;-70
2022/07/27 00:52:11;;;;;;;5.20;1.20;;;;;;;15.85;100.00;95714.81;1023472;28;20085;-71
2022/07/27 00:52:42;;;;;;;6.20;1.77;;;;;;;15.80;100.00;95702.50;1019011;29;20050;-70
2022/07/27 00:53:12;;;;;;;5.53;1.50;;;;;;;15.69;100.00;95693.19;1019347;29;20028;-71
2022/07/27 00:53:43;;;;;;;5.63;1.48;;;;;;;15.87;100.00;95715.31;1015339;29;20039;-71
2022/07/27 00:54:13;;;;;;;1.83;1.25;;;;;;;15.87;100.00;95705.53;1019019;29;20481;-70
2022/07/27 00:54:44;;;;;;;5.57;1.60;;;;;;;15.87;100.00;95710.03;1019018;29;20550;-71
2022/07/27 00:55:14;;;;;;;3.35;1.63;;;;;;;15.90;100.00;95720.03;1015371;29;20032;-71
2022/07/27 00:55:45;;;;;;;4.55;1.38;;;;;;;15.84;100.00;95711.41;1019331;28;20059;-70
2022/07/27 00:56:16;;;;;;;6.93;1.90;;;;;;;15.90;100.00;95709.44;1018909;29;20548;-71
2022/07/27 00:56:46;;;;;;;8.73;1.63;;;;;;;15.89;100.00;95719.22;1019458;28;20023;-71
2022/07/27 00:57:17;;;;;;;8.20;1.70;;;;;;;15.82;100.00;95704.84;1018988;29;20122;-70
2022/07/27 00:57:48;;;;;;;4.10;1.67;;;;;;;15.88;100.00;95722.19;1019037;29;20016;-71
2022/07/27 00:58:18;;;;;;;3.47;1.13;;;;;;;15.86;100.00;95717.19;1019205;29;20430;-70
2022/07/27 00:58:50;;;;;;;7.45;1.27;;;;;;;15.86;100.00;95724.31;1019418;28;20050;-70
2022/07/27 00:59:20;;;;;;;6.45;1.60;;;;;;;15.79;100.00;95708.84;1025531;28;20704;-71
2022/07/27 00:59:51;;;;;;;7.18;1.20;;;;;;;15.75;100.00;95706.00;1023365;28;20011;-70
2022/07/27 01:00:22;;;;;;;4.68;1.73;;;;;;;15.83;100.00;95711.69;1019250;29;20393;-71
2022/07/27 01:00:52;;;;;;;4.75;1.90;;;;;;;15.81;100.00;95717.28;1019174;29;20087;-71
2022/07/27 01:01:23;;;;;;;6.97;1.52;;;;;;;15.82;100.00;95723.34;1018537;29;20509;-71
2022/07/27 01:01:53;;;;;;;2.22;1.30;;;;;;;15.77;100.00;95706.50;1023227;28;20063;-71
2022/07/27 01:02:25;;;;;;;3.47;1.58;;;;;;;15.85;100.00;95717.47;1027145;28;20686;-70
2022/07/27 01:02:55;;;;;;;6.22;1.50;;;;;;;15.84;100.00;95727.28;1026174;28;20030;-71
2022/07/27 01:03:26;;;;;;;2.55;1.27;;;;;;;15.86;100.00;95719.84;1027055;28;20039;-70
2022/07/27 01:03:56;;;;;;;8.35;1.90;;;;;;;15.87;100.00;95717.97;1019126;29;20032;-72
2022/07/27 01:04:27;;;;;;;3.05;1.60;;;;;;;15.85;100.00;95712.19;1022917;28;20509;-71
2022/07/27 01:04:57;;;;;;;4.97;1.92;;;;;;;15.86;100.00;95709.25;1023348;28;20030;-70
2022/07/27 01:05:31;;;;;;;2.47;1.30;;;;;;;15.88;100.00;95714.25;1027187;28;20026;-70
2022/07/27 01:06:01;;;;;;;4.70;1.70;;;;;;;15.82;100.00;95696.91;1034980;28;20021;-71
2022/07/27 01:06:32;;;;;;;4.53;1.42;;;;;;;15.87;100.00;95710.03;1023150;28;20031;-69
2022/07/27 01:07:03;;;;;;;2.67;1.63;;;;;;;15.89;100.00;95713.16;1015206;28;20016;-70
2022/07/27 01:07:33;;;;;;;3.25;1.33;;;;;;;15.89;100.00;95710.50;1015230;29;20084;-71
2022/07/27 01:08:05;;;;;;;3.08;1.60;;;;;;;15.90;100.00;95712.09;1023313;28;20765;-71
2022/07/27 01:08:36;;;;;;;2.38;1.42;;;;;;;15.89;100.00;95710.50;1027023;28;20023;-70
2022/07/27 01:09:56;;;;;;;7.68;2.13;;;;;;;15.97;100.00;95705.31;1020339;29;20036;-71
2022/07/27 01:10:26;;;;;;;7.47;2.28;;;;;;;15.99;100.00;95712.94;1024389;28;20035;-70
2022/07/27 01:10:56;;;;;;;4.63;1.60;;;;;;;16.00;100.00;95710.00;1029746;28;20044;-71
2022/07/27 01:11:27;;;;;;;6.50;1.92;;;;;;;15.99;100.00;95705.00;1025990;28;20023;-72
2022/07/27 01:11:57;;;;;;;5.18;1.85;;;;;;;16.01;100.00;95705.50;1015166;29;20123;-71
2022/07/27 01:12:29;;;;;;;2.90;1.52;;;;;;;15.96;100.00;95693.16;1019041;29;20063;-71
2022/07/27 01:13:00;;;;;;;3.38;1.27;;;;;;;16.02;100.00;95705.19;1018998;29;20023;-71
2022/07/27 01:13:30;;;;;;;6.00;2.25;;;;;;;16.07;100.00;95706.94;1014988;29;20043;-71
2022/07/27 01:14:04;;;;;;;1.52;1.40;;;;;;;16.03;100.00;95704.13;1023105;29;20035;-71
2022/07/27 01:14:34;;;;;;;6.65;1.60;;;;;;;16.02;100.00;95694.59;1022873;29;20031;-71
2022/07/27 01:15:05;;;;;;;2.42;1.52;;;;;;;16.12;100.00;95704.19;1019115;29;20466;-72
2022/07/27 01:15:36;;;;;;;2.33;1.30;;;;;;;16.07;100.00;95693.72;1018909;29;20036;-70
2022/07/27 01:16:07;;;;;;;2.53;1.40;;;;;;;16.10;100.00;95698.41;1018994;29;20058;-71
2022/07/27 01:16:38;;;;;;;3.88;1.38;;;;;;;16.18;100.00;95699.56;1014963;29;20038;-70
2022/07/27 01:17:08;;;;;;;5.50;1.90;;;;;;;16.19;100.00;95701.91;1023074;29;20110;-71
2022/07/27 01:17:39;;;;;;;4.45;1.90;;;;;;;16.20;100.00;95700.84;1022812;29;20038;-71
2022/07/27 01:18:17;;;;;;;6.50;1.63;;;;;;;16.20;100.00;95694.78;1021545;28;20028;-72
2022/07/27 01:18:48;;;;;;;3.55;1.25;;;;;;;16.23;100.00;95696.78;1026856;28;20039;-71
2022/07/27 01:19:18;;;;;;;3.22;1.13;;;;;;;16.22;100.00;95696.00;1018908;29;20031;-70
2022/07/27 01:19:49;;;;;;;3.78;1.30;;;;;;;16.18;100.00;95683.69;1018847;29;20035;-71
2022/07/27 01:20:19;;;;;;;6.15;1.60;;;;;;;16.23;100.00;95697.59;1022909;28;20399;-72
2022/07/27 01:20:50;;;;;;;1.63;1.40;;;;;;;16.24;100.00;95693.84;1019189;29;20335;-71
2022/07/27 01:21:20;;;;;;;4.47;1.25;;;;;;;16.24;100.00;95696.50;1018375;29;20055;-70
2022/07/27 01:21:51;;;;;;;7.53;1.70;;;;;;;16.23;100.00;95692.31;1019814;28;20020;-71
2022/07/27 01:22:21;;;;;;;4.38;1.75;;;;;;;16.23;100.00;95694.94;1023178;28;20552;-72
2022/07/27 01:22:51;;;;;;;5.32;1.45;;;;;;;16.21;100.00;95689.16;1026929;28;20015;-71
2022/07/27 01:23:25;;;;;;;3.45;1.55;;;;;;;16.15;100.00;95674.47;1027113;28;20050;-71
2022/07/27 01:23:55;;;;;;;6.22;1.52;;;;;;;16.20;100.00;95687.59;1018810;29;20419;-72
2022/07/27 01:24:25;;;;;;;2.67;1.58;;;;;;;16.19;100.00;95686.00;1019051;29;20024;-71
2022/07/27 01:24:56;;;;;;;14.18;2.47;;;;;;;16.19;100.00;95687.88;1015188;29;20020;-70
2022/07/27 01:25:26;;;;;;;6.18;2.63;;;;;;;16.18;100.00;95681.81;1017843;28;20028;-72
2022/07/27 01:25:58;;;;;;;4.63;1.58;;;;;;;16.17;100.00;95684.78;1030892;28;20023;-71
2022/07/27 01:26:29;;;;;;;3.53;1.83;;;;;;;16.20;100.00;95684.19;1027269;28;20053;-71
2022/07/27 01:27:00;;;;;;;4.18;2.13;;;;;;;16.20;100.00;95681.53;1030899;28;20026;-72
2022/07/27 01:27:31;;;;;;;9.00;1.73;;;;;;;16.20;100.00;95684.94;1027004;28;20019;-71
2022/07/27 01:28:01;;;;;;;3.88;1.27;;;;;;;16.19;100.00;95691.31;1030703;28;20381;-72
2022/07/27 01:28:32;;;;;;;5.85;1.80;;;;;;;16.21;100.00;95683.88;1026944;28;20038;-70
2022/07/27 01:29:02;;;;;;;9.57;1.85;;;;;;;16.15;100.00;95679.75;1031029;28;20014;-73
2022/07/27 01:29:33;;;;;;;2.65;1.38;;;;;;;16.22;100.00;95690.72;1027001;28;20294;-71
2022/07/27 01:30:25;;;;;;;3.67;1.30;;;;;;;16.18;100.00;95673.09;1022849;29;20441;-69
2022/07/27 01:30:55;;;;;;;2.28;1.25;;;;;;;16.27;100.00;95687.97;1023000;29;20130;-68
2022/07/27 01:31:26;;;;;;;8.65;1.58;;;;;;;16.27;100.00;95687.97;1024641;28;20031;-71
2022/07/27 01:31:57;;;;;;;2.72;1.50;;;;;;;16.27;100.00;95692.47;1026684;28;20097;-70
2022/07/27 01:32:27;;;;;;;3.58;1.10;;;;;;;16.27;100.00;95685.31;1022796;29;20035;-72
2022/07/27 01:33:02;;;;;;;2.38;1.20;;;;;;;16.30;100.00;95680.50;1019752;29;20119;-70
2022/07/27 01:33:32;;;;;;;1.75;1.00;;;;;;;16.30;100.00;95680.50;1022991;29;20031;-70
2022/07/27 01:34:03;;;;;;;1.77;1.10;;;;;;;16.31;100.00;95682.06;1023359;28;20038;-71
2022/07/27 01:34:34;;;;;;;2.42;1.10;;;;;;;16.31;100.00;95688.16;1026724;28;20057;-71
2022/07/27 01:35:05;;;;;;;2.70;1.20;;;;;;;16.31;100.00;95682.06;1027115;28;20563;-70
2022/07/27 01:35:36;;;;;;;8.38;1.30;;;;;;;16.29;100.00;95674.41;1027105;28;20118;-69
2022/07/27 01:36:06;;;;;;;6.47;1.85;;;;;;;16.34;100.00;95682.25;1026594;28;20105;-71
2022/07/27 01:36:37;;;;;;;3.50;1.23;;;;;;;16.29;100.00;95673.63;1023018;28;20482;-71
2022/07/27 01:37:07;;;;;;;4.38;1.67;;;;;;;16.33;100.00;95686.00;1026614;28;20030;-71
2022/07/27 01:37:38;;;;;;;5.03;1.30;;;;;;;16.35;100.00;95677.75;1030999;28;20027;-71
2022/07/27 01:38:09;;;;;;;3.88;1.63;;;;;;;16.39;100.00;95684.78;1026974;28;20030;-69
2022/07/27 01:38:39;;;;;;;3.97;1.70;;;;;;;16.40;100.00;95685.56;1026842;28;20037;-72
2022/07/27 01:39:11;;;;;;;2.92;1.40;;;;;;;16.39;100.00;95679.47;1026776;28;20492;-71
2022/07/27 01:39:42;;;;;;;3.03;1.05;;;;;;;16.40;100.00;95674.97;1023335;28;20070;-71
2022/07/27 01:40:12;;;;;;;3.13;1.50;;;;;;;16.39;100.00;95678.69;1026590;28;20058;-71
2022/07/27 01:40:43;;;;;;;4.70;1.33;;;;;;;16.42;100.00;95678.88;1022665;28;20115;-71
2022/07/27 01:41:13;;;;;;;4.32;1.80;;;;;;;16.43;100.00;95679.66;1029998;28;20022;-72
2022/07/27 01:41:44;;;;;;;3.03;1.30;;;;;;;16.40;100.00;95669.69;1030983;28;20562;-72
2022/07/27 01:42:15;;;;;;;16.30;2.67;;;;;;;16.42;100.00;95675.44;1026760;28;20073;-71
2022/07/27 01:42:45;;;;;;;482.38;42.97;;;;;;;16.42;100.00;95678.09;1026850;28;20038;-69
2022/07/27 01:43:16;;;;;;;13.43;2.88;;;;;;;16.43;100.00;95677.00;1027124;28;20031;-69
2022/07/27 01:43:46;;;;;;;3.20;1.20;;;;;;;16.34;100.00;95666.38;1026892;28;20535;-68
2022/07/27 01:44:17;;;;;;;4.68;1.00;;;;;;;16.41;100.00;95676.53;1030743;28;20061;-71
2022/07/27 01:44:47;;;;;;;2.53;1.10;;;;;;;16.39;100.00;95679.47;1026691;28;20039;-72
2022/07/27 01:45:18;;;;;;;3.28;1.20;;;;;;;16.39;100.00;95681.34;1025328;28;20038;-71
2022/07/27 01:45:48;;;;;;;2.08;1.10;;;;;;;16.30;100.00;95668.06;1026619;28;20078;-72
2022/07/27 01:46:19;;;;;;;3.25;1.15;;;;;;;16.36;100.00;95674.00;1019049;29;20067;-72
2022/07/27 01:46:49;;;;;;;3.30;1.13;;;;;;;16.33;100.00;95670.09;1022520;28;20035;-72
2022/07/27 01:47:20;;;;;;;3.53;1.10;;;;;;;16.35;100.00;95675.09;1022917;28;20159;-72
2022/07/27 01:47:50;;;;;;;4.90;1.70;;;;;;;16.34;100.00;95673.53;1027085;28;20035;-71
2022/07/27 01:48:21;;;;;;;3.10;1.40;;;;;;;16.33;100.00;95675.41;1034949;28;20418;-71
2022/07/27 01:48:51;;;;;;;7.00;1.42;;;;;;;16.31;100.00;95671.47;1034809;28;20037;-71
2022/07/27 01:49:21;;;;;;;3.20;0.93;;;;;;;16.29;100.00;95671.75;1034688;28;20030;-71
2022/07/27 01:49:52;;;;;;;5.93;1.10;;;;;;;16.30;100.00;95669.91;1026829;28;20121;-71
2022/07/27 01:50:22;;;;;;;4.63;1.30;;;;;;;16.33;100.00;95677.25;1022936;28;20024;-70
2022/07/27 01:50:53;;;;;;;4.57;1.20;;;;;;;16.34;100.00;95676.19;1018694;28;20028;-71
2022/07/27 01:51:23;;;;;;;5.18;1.20;;;;;;;16.33;100.00;95674.59;1018319;28;20122;-71
2022/07/27 01:51:54;;;;;;;1.70;1.02;;;;;;;16.30;100.00;95672.53;1022867;29;20665;-70
2022/07/27 01:52:24;;;;;;;3.70;0.82;;;;;;;16.30;100.00;95669.91;1022923;28;20082;-71
2022/07/27 01:52:55;;;;;;;1.10;0.85;;;;;;;16.31;100.00;95669.63;1030714;28;20026;-70
2022/07/27 01:53:25;;;;;;;1.55;0.88;;;;;;;16.32;100.00;95673.03;1030850;28;20030;-70
2022/07/27 01:53:56;;;;;;;1.70;1.10;;;;;;;16.32;100.00;95673.03;1030888;28;20440;-71
2022/07/27 01:54:27;;;;;;;2.72;1.10;;;;;;;16.32;100.00;95662.44;1030653;28;20109;-72
2022/07/27 01:54:57;;;;;;;2.42;1.17;;;;;;;16.35;100.00;95667.91;1030847;28;20420;-70
2022/07/27 01:55:28;;;;;;;3.72;1.35;;;;;;;16.34;100.00;95666.38;1026805;28;20062;-70
2022/07/27 01:55:58;;;;;;;469.35;57.75;;;;;;;16.33;100.00;95666.66;1026741;28;20038;-71
2022/07/27 01:56:28;;;;;;;1.65;1.20;;;;;;;16.25;100.00;95661.00;1027015;28;20031;-72
2022/07/27 01:56:59;;;;;;;3.22;1.35;;;;;;;16.29;100.00;95660.41;1030919;28;20085;-75
2022/07/27 01:57:29;;;;;;;2.88;1.17;;;;;;;16.26;100.00;95648.53;1030625;28;20116;-69
2022/07/27 01:58:02;;;;;;;3.67;1.40;;;;;;;16.28;100.00;95649.03;1026924;28;20022;-71
2022/07/27 01:58:33;;;;;;;2.88;1.33;;;;;;;16.30;100.00;95659.31;1018959;29;20111;-71
2022/07/27 01:59:03;;;;;;;3.75;1.50;;;;;;;16.14;100.00;95630.56;1018975;29;20478;-70
2022/07/27 01:59:34;;;;;;;1.55;1.10;;;;;;;16.27;100.00;95661.50;1018658;29;20086;-71
2022/07/27 02:00:06;;;;;;;3.55;1.73;;;;;;;16.26;100.00;95653.81;1018888;29;20036;-72
2022/07/27 02:00:37;;;;;;;3.10;1.90;;;;;;;16.30;100.00;95659.31;1018999;29;20019;-71
2022/07/27 02:01:10;;;;;;;2.60;1.50;;;;;;;16.30;100.00;95656.66;1020495;28;20024;-69
2022/07/27 02:01:41;;;;;;;1.67;1.00;;;;;;;16.23;100.00;95649.94;1022582;29;20027;-71
2022/07/27 02:02:14;;;;;;;3.88;1.42;;;;;;;16.26;100.00;95652.00;1027143;28;20035;-72
2022/07/27 02:02:44;;;;;;;4.20;1.40;;;;;;;16.25;100.00;95654.91;1024373;28;20038;-72
2022/07/27 02:03:15;;;;;;;1.27;1.05;;;;;;;16.24;100.00;95654.16;1022706;29;20130;-71
2022/07/27 02:03:45;;;;;;;1.65;1.27;;;;;;;16.22;100.00;95653.66;1018758;29;20039;-70
2022/07/27 02:04:17;;;;;;;0.75;0.75;;;;;;;16.19;100.00;95650.81;1018795;29;20035;-70
2022/07/27 02:04:47;;;;;;;1.63;0.90;;;;;;;16.20;100.00;95653.19;1023047;28;20027;-70
2022/07/27 02:05:18;;;;;;;3.47;1.35;;;;;;;16.18;100.00;95644.75;1022796;29;20027;-69
2022/07/27 02:05:48;;;;;;;2.78;1.00;;;;;;;16.16;100.00;95649.56;1019098;28;20038;-70
2022/07/27 02:06:18;;;;;;;1.75;1.17;;;;;;;16.14;100.00;95646.44;1026795;28;20029;-71
2022/07/27 02:06:49;;;;;;;2.58;1.13;;;;;;;16.10;100.00;95639.41;1023047;28;20027;-71
2022/07/27 02:07:19;;;;;;;5.53;1.10;;;;;;;16.14;100.00;95646.44;1023022;28;20079;-71
2022/07/27 02:07:50;;;;;;;2.97;0.98;;;;;;;16.10;100.00;95642.06;1022639;28;20031;-71
2022/07/27 02:08:20;;;;;;;3.78;1.20;;;;;;;16.12;100.00;95651.25;1019046;29;20031;-69
2022/07/27 02:08:51;;;;;;;5.82;1.50;;;;;;;16.11;100.00;95652.31;1022973;28;20544;-69
2022/07/27 02:09:24;;;;;;;1.17;0.80;;;;;;;16.07;100.00;95645.28;1022927;28;20042;-69
2022/07/27 02:09:55;;;;;;;1.65;1.15;;;;;;;16.12;100.00;95655.75;1019234;29;20119;-71
2022/07/27 02:10:25;;;;;;;3.72;1.20;;;;;;;16.10;100.00;95656.06;1022831;28;20054;-71
2022/07/27 02:12:36;;;;;;;4.95;1.70;;;;;;;16.12;100.00;95667.13;1018085;29;20059;-70
2022/07/27 02:13:07;;;;;;;2.53;1.20;;;;;;;16.12;100.00;95658.41;1020322;28;20031;-72
2022/07/27 02:13:38;;;;;;;2.95;1.05;;;;;;;16.11;100.00;95659.50;1022816;28;20023;-71
2022/07/27 02:14:08;;;;;;;2.15;1.08;;;;;;;16.14;100.00;95654.38;1019172;29;20106;-71
2022/07/27 02:14:39;;;;;;;4.43;1.42;;;;;;;16.17;100.00;95660.94;1024365;28;20496;-68
2022/07/27 02:15:15;;;;;;;2.70;0.95;;;;;;;16.12;100.00;95661.81;1022943;28;20027;-72
2022/07/27 02:15:45;;;;;;;2.80;0.93;;;;;;;16.16;100.00;95662.81;1027674;28;20035;-70
2022/07/27 02:16:16;;;;;;;3.50;1.20;;;;;;;16.18;100.00;95667.78;1030439;28;20026;-69
2022/07/27 02:16:47;;;;;;;2.45;1.25;;;;;;;16.18;100.00;95663.28;1031864;28;20093;-71
2022/07/27 02:17:17;;;;;;;5.88;1.17;;;;;;;16.18;100.00;95657.22;1030763;28;20700;-72
2022/07/27 02:17:48;;;;;;;3.10;1.38;;;;;;;16.16;100.00;95668.09;1030735;28;20022;-70
2022/07/27 02:18:18;;;;;;;1.20;0.95;;;;;;;16.17;100.00;95661.72;1026568;28;20104;-71
2022/07/27 02:18:49;;;;;;;3.97;1.10;;;;;;;16.22;100.00;95668.75;1018846;29;20032;-72
2022/07/27 02:19:19;;;;;;;1.15;1.05;;;;;;;16.20;100.00;95661.13;1022855;29;20479;-70
2022/07/27 02:19:49;;;;;;;14.23;2.30;;;;;;;16.17;100.00;95660.94;1022819;28;20122;-71
2022/07/27 02:20:23;;;;;;;3.53;1.25;;;;;;;16.23;100.00;95679.06;1030546;28;20026;-69
2022/07/27 02:20:54;;;;;;;4.88;1.30;;;;;;;16.24;100.00;95670.03;1030738;28;20158;-70
2022/07/27 02:21:24;;;;;;;6.20;1.30;;;;;;;16.21;100.00;95678.56;1030064;28;20112;-71
2022/07/27 02:21:55;;;;;;;7.00;0.93;;;;;;;16.15;100.00;95666.53;1030627;28;20054;-71
2022/07/27 02:22:25;;;;;;;3.72;0.95;;;;;;;16.18;100.00;95676.50;1030579;28;20101;-71
2022/07/27 02:22:56;;;;;;;11.27;2.28;;;;;;;16.19;100.00;95675.44;1026809;28;20054;-70
2022/07/27 02:23:27;;;;;;;2.97;1.30;;;;;;;16.16;100.00;95676.06;1030628;28;20026;-70
2022/07/27 02:23:57;;;;;;;1.60;0.93;;;;;;;16.16;100.00;95676.06;1018707;28;20080;-68
2022/07/27 02:24:27;;;;;;;2.13;0.93;;;;;;;16.16;100.00;95673.41;1018810;29;20087;-71
2022/07/27 02:24:58;;;;;;;5.78;1.42;;;;;;;16.18;100.00;95673.09;1018707;29;20031;-71
2022/07/27 02:25:28;;;;;;;2.55;1.10;;;;;;;16.22;100.00;95680.13;1022897;28;20812;-71
2022/07/27 02:26:00;;;;;;;2.17;1.17;;;;;;;16.23;100.00;95681.72;1027118;28;20025;-73